createdAt,value
2022-12-13T04:05:10.440Z,873.53
2022-12-13T04:08:21.635Z,881.23
2022-12-13T04:11:43.568Z,862.17
2022-12-13T04:14:53.480Z,835.90
2022-12-13T04:18:03.284Z,843.83
2022-12-13T04:21:14.377Z,854.83
2022-12-13T04:24:30.948Z,861.20
2022-12-13T04:27:41.821Z,852.20
2022-12-13T04:30:52.766Z,837.90
2022-12-13T04:34:03.655Z,856.13
2022-12-13T04:37:15.082Z,832.13
2022-12-13T04:40:25.096Z,823.13
2022-12-13T04:43:34.931Z,867.67
2022-12-13T04:46:44.570Z,873.33
2022-12-13T04:49:55.091Z,853.47
2022-12-13T04:53:06.211Z,837.03
2022-12-13T04:56:16.041Z,835.90
2022-12-13T04:59:26.234Z,837.00
2022-12-13T05:02:36.417Z,824.00
2022-12-13T05:05:46.130Z,832.10
2022-12-13T05:09:00.803Z,817.87
2022-12-13T05:12:12.991Z,842.63
2022-12-13T05:15:36.428Z,843.30
2022-12-13T05:18:46.155Z,843.63
2022-12-13T05:21:55.802Z,844.07
2022-12-13T05:25:12.253Z,846.03
2022-12-13T05:28:28.518Z,858.13
2022-12-13T05:31:38.512Z,854.57
2022-12-13T05:34:48.309Z,848.30
2022-12-13T05:37:58.049Z,860.20
2022-12-13T05:41:17.392Z,848.47
2022-12-13T05:44:27.240Z,860.80
2022-12-13T05:47:36.966Z,847.90
2022-12-13T05:50:46.814Z,841.53
2022-12-13T05:53:56.531Z,846.23
2022-12-13T05:57:07.644Z,861.73
2022-12-13T06:00:28.340Z,849.17
2022-12-13T06:03:40.002Z,852.30
2022-12-13T06:06:51.267Z,836.67
2022-12-13T06:10:09.752Z,838.87
2022-12-13T06:13:31.960Z,849.37
2022-12-13T06:16:42.321Z,843.10
2022-12-13T06:19:52.543Z,847.33
2022-12-13T06:23:02.238Z,837.47
2022-12-13T06:26:11.955Z,855.03
2022-12-13T06:29:25.792Z,856.27
2022-12-13T06:32:39.966Z,830.20
2022-12-13T06:35:52.814Z,831.03
2022-12-13T06:39:03.557Z,829.37
2022-12-13T06:42:21.905Z,846.80
2022-12-13T06:45:33.595Z,843.07
2022-12-13T06:48:45.133Z,833.83
2022-12-13T06:51:54.829Z,828.70
2022-12-13T06:55:05.886Z,842.67
2022-12-13T06:58:15.690Z,835.10
2022-12-13T07:01:26.798Z,824.37
2022-12-13T07:04:36.657Z,844.63
2022-12-13T07:07:46.326Z,829.80
2022-12-13T07:10:56.735Z,843.80
2022-12-13T07:14:06.488Z,847.70
2022-12-13T07:17:32.295Z,846.47
2022-12-13T07:20:44.589Z,829.13
2022-12-13T11:34:32.856Z,673.27
2022-12-13T11:37:50.531Z,692.53
2022-12-13T11:41:11.238Z,654.40
2022-12-13T11:44:29.466Z,682.37
2022-12-13T11:47:45.086Z,660.93
2022-12-13T11:50:57.331Z,668.03
2022-12-13T11:58:16.614Z,638.77
2022-12-13T12:01:38.123Z,662.97
2022-12-13T12:04:59.652Z,665.07
2022-12-13T12:08:31.065Z,680.60
2022-12-13T12:11:50.022Z,658.40
2022-12-13T12:15:15.626Z,684.70
2022-12-13T12:18:27.533Z,642.43
2022-12-13T12:22:12.790Z,660.27
2022-12-13T12:25:29.149Z,609.40
2022-12-13T12:29:01.283Z,616.00
2022-12-13T12:32:23.515Z,705.80
2022-12-13T12:35:57.665Z,593.57
2022-12-13T12:39:26.231Z,609.57
2022-12-13T12:43:13.739Z,730.47
2022-12-13T12:47:08.975Z,700.60
2022-12-13T12:50:24.392Z,670.10
2022-12-13T12:53:43.020Z,604.93
2022-12-13T12:57:07.880Z,727.43
2022-12-13T13:00:22.920Z,702.57
2022-12-13T13:03:37.450Z,611.93
2022-12-13T13:06:52.918Z,754.63
2022-12-13T13:10:16.320Z,785.37
2022-12-13T13:13:36.416Z,757.73
2022-12-13T13:16:59.036Z,737.43
2022-12-13T13:20:19.285Z,676.00
2022-12-13T13:23:39.929Z,643.43
2022-12-13T13:26:53.686Z,655.53
2022-12-13T13:30:08.865Z,606.27
2022-12-13T13:33:45.167Z,742.00
2022-12-13T13:36:57.423Z,754.60
2022-12-13T13:40:31.765Z,749.53
2022-12-13T13:43:42.699Z,717.67
2022-12-13T13:47:12.628Z,767.77
2022-12-13T13:50:43.868Z,780.73
2022-12-13T13:54:19.627Z,759.83
2022-12-13T13:58:10.970Z,710.53
2022-12-13T14:01:40.532Z,742.37
2022-12-13T14:05:16.617Z,805.70
2022-12-13T14:08:36.999Z,769.07
2022-12-13T14:12:08.588Z,745.07
2022-12-13T14:15:55.588Z,759.60
2022-12-13T14:19:28.820Z,738.40
2022-12-13T14:22:44.607Z,742.47
2022-12-13T14:26:13.987Z,754.67
2022-12-13T14:29:29.419Z,751.20
2022-12-13T14:32:41.009Z,734.03
2022-12-13T14:35:53.627Z,742.13
2022-12-13T14:39:07.217Z,761.57
2022-12-13T14:42:37.756Z,749.93
2022-12-13T14:45:57.410Z,747.43
2022-12-13T14:49:13.000Z,774.90
2022-12-13T14:52:27.945Z,754.57
2022-12-13T14:55:38.749Z,759.60
2022-12-13T14:58:56.465Z,760.67
2022-12-13T15:02:07.273Z,789.83
2022-12-13T15:05:28.954Z,810.10
2022-12-13T15:08:42.059Z,749.30
2022-12-13T15:11:54.625Z,790.73
2022-12-13T15:15:18.920Z,834.43
2022-12-13T15:18:33.068Z,786.10
2022-12-13T15:22:01.738Z,760.10
2022-12-13T15:25:16.614Z,746.90
2022-12-13T15:28:32.671Z,791.20
2022-12-13T15:31:48.989Z,759.97
2022-12-13T15:35:16.649Z,758.93
2022-12-13T15:38:28.764Z,760.80
2022-12-13T15:41:46.741Z,741.67
2022-12-13T15:44:59.862Z,748.27
2022-12-13T15:48:26.192Z,792.67
2022-12-13T15:51:55.772Z,772.90
2022-12-13T15:55:28.457Z,846.73
2022-12-13T15:58:39.791Z,853.97
2022-12-13T16:01:57.873Z,806.07
2022-12-13T16:05:26.646Z,831.37
2022-12-13T16:08:39.904Z,791.97
2022-12-13T16:11:54.692Z,793.53
2022-12-13T16:15:20.263Z,818.37
2022-12-13T16:18:45.892Z,813.17
2022-12-13T16:21:58.223Z,824.73
2022-12-13T16:25:12.236Z,843.77
2022-12-13T16:28:26.272Z,813.90
2022-12-13T16:31:37.287Z,837.60
2022-12-13T16:34:48.408Z,803.87
2022-12-13T16:38:09.128Z,807.57
2022-12-13T16:41:22.301Z,786.80
2022-12-13T16:44:36.473Z,817.27
2022-12-13T16:47:49.801Z,852.33
2022-12-13T16:51:00.662Z,820.00
2022-12-13T16:54:12.690Z,812.53
2022-12-13T16:57:23.497Z,862.03
2022-12-13T17:00:34.455Z,827.87
2022-12-13T17:03:45.370Z,812.70
2022-12-13T17:06:56.203Z,811.93
2022-12-13T17:10:09.356Z,825.03
2022-12-13T17:13:20.127Z,789.97
2022-12-13T17:16:30.835Z,860.27
2022-12-13T17:19:41.696Z,846.00
2022-12-13T17:22:52.717Z,911.00
2022-12-13T17:26:07.274Z,888.27
2022-12-13T17:29:18.076Z,896.77
2022-12-13T17:32:29.675Z,799.63
2022-12-13T17:35:40.985Z,822.13
2022-12-13T17:38:52.265Z,861.53
2022-12-13T17:42:04.804Z,869.03
2022-12-13T17:45:16.966Z,855.47
2022-12-13T17:48:29.699Z,823.37
2022-12-13T17:51:43.326Z,817.70
2022-12-13T17:55:04.629Z,827.07
2022-12-13T17:58:16.577Z,848.40
2022-12-13T18:01:30.523Z,843.27
2022-12-13T18:04:42.545Z,844.03
2022-12-13T18:07:53.278Z,842.53
2022-12-13T18:14:38.013Z,850.57
2022-12-13T18:18:10.804Z,897.57
2022-12-13T18:21:20.759Z,860.03
2022-12-13T18:24:32.739Z,921.53
2022-12-13T18:27:44.132Z,889.43
2022-12-13T18:31:00.066Z,845.83
2022-12-13T18:34:11.950Z,823.70
2022-12-13T18:37:25.260Z,824.43
2022-12-13T18:40:41.963Z,829.53
2022-12-13T18:44:00.003Z,801.63
2022-12-13T18:47:19.449Z,807.57
2022-12-13T18:50:35.743Z,781.47
2022-12-13T18:53:50.051Z,741.70
2022-12-13T18:57:05.060Z,795.90
2022-12-13T19:00:19.439Z,782.90
2022-12-13T19:03:37.845Z,836.77
2022-12-13T19:06:51.548Z,795.40
2022-12-13T19:10:08.612Z,761.90
2022-12-13T19:13:23.841Z,793.73
2022-12-13T19:16:37.784Z,759.70
2022-12-13T19:19:54.545Z,772.87
2022-12-13T19:23:08.858Z,761.37
2022-12-13T19:26:24.066Z,760.10
2022-12-13T19:29:42.358Z,785.17
2022-12-13T19:32:56.792Z,741.07
2022-12-13T19:36:12.837Z,780.40
2022-12-13T19:39:27.492Z,824.37
2022-12-13T19:42:41.504Z,788.63
2022-12-13T19:45:55.801Z,748.93
2022-12-13T19:49:12.649Z,776.73
2022-12-13T19:52:28.589Z,767.90
2022-12-13T19:55:48.246Z,762.80
2022-12-13T19:59:02.822Z,765.00
2022-12-13T20:02:17.936Z,798.47
2022-12-13T20:05:31.774Z,839.33
2022-12-13T20:08:53.569Z,777.80
2022-12-13T20:12:07.302Z,772.80
2022-12-13T20:15:21.565Z,775.47
2022-12-13T20:18:38.894Z,751.20
2022-12-13T20:21:57.069Z,756.37
2022-12-13T20:25:13.353Z,759.47
2022-12-13T20:28:27.522Z,746.47
2022-12-13T20:31:48.356Z,756.53
2022-12-13T20:35:02.625Z,746.20
2022-12-13T20:38:16.328Z,785.50
2022-12-13T20:41:36.675Z,773.93
2022-12-13T20:44:52.269Z,759.97
2022-12-13T20:48:05.853Z,764.97
2022-12-13T20:51:21.336Z,717.83
2022-12-13T20:54:35.226Z,764.47
2022-12-13T20:57:53.343Z,764.37
2022-12-13T21:01:05.159Z,788.50
2022-12-13T21:04:15.835Z,801.60
2022-12-13T21:07:40.348Z,816.43
2022-12-13T21:10:51.465Z,801.10
2022-12-13T21:14:11.016Z,798.47
2022-12-13T21:17:24.197Z,731.73
2022-12-13T21:20:35.057Z,800.13
2022-12-13T21:23:45.868Z,838.13
2022-12-13T21:26:57.719Z,797.20
2022-12-13T21:30:10.526Z,794.53
2022-12-13T21:33:21.294Z,811.90
2022-12-13T21:36:35.357Z,775.17
2022-12-13T21:39:46.338Z,776.80
2022-12-13T21:42:56.996Z,785.43
2022-12-13T21:46:10.802Z,792.90
2022-12-13T21:49:21.429Z,756.90
2022-12-13T21:52:34.458Z,754.37
2022-12-13T21:55:45.457Z,763.50
2022-12-13T21:59:09.388Z,778.93
2022-12-13T22:02:22.453Z,791.67
2022-12-13T22:05:33.263Z,775.37
2022-12-13T22:08:44.079Z,772.73
2022-12-13T22:11:54.805Z,747.00
2022-12-13T22:15:07.184Z,763.00
2022-12-13T22:18:19.006Z,790.90
2022-12-13T22:21:29.766Z,742.70
2022-12-13T22:24:40.557Z,746.03
2022-12-13T22:27:51.208Z,785.80
2022-12-13T22:31:02.067Z,748.50
2022-12-13T22:34:14.062Z,767.20
2022-12-13T22:37:26.023Z,793.10
2022-12-13T22:40:39.731Z,802.87
2022-12-13T22:43:50.528Z,776.30
2022-12-13T22:47:01.449Z,749.23
2022-12-13T22:50:13.400Z,794.03
2022-12-13T22:53:24.143Z,765.43
2022-12-13T22:56:35.011Z,783.53
2022-12-13T22:59:45.375Z,787.03
2022-12-13T23:02:56.510Z,788.33
2022-12-13T23:06:10.323Z,765.83
2022-12-13T23:09:21.049Z,747.20
2022-12-13T23:12:42.760Z,811.23
2022-12-13T23:15:53.525Z,771.60
2022-12-13T23:19:32.104Z,752.27
2022-12-13T23:22:37.334Z,733.87
2022-12-13T23:25:49.025Z,730.37
2022-12-13T23:29:01.389Z,724.57
2022-12-13T23:32:12.194Z,748.27
2022-12-13T23:35:23.283Z,783.67
2022-12-13T23:38:35.757Z,777.33
